North Platte, Nebraska
Current Conditions -  °F | °C
As of 11:53 AM on Monday 22 Dec 2014 (Local Time) from KLBF Reporting Station
Clear Clear  
Wind Chill:   Ceiling: Unl
Heat Index:   Visibility: 10mi
Dew Point: -3°   Wind: 20mph
Humidity: 46%   Direction: 310°NW
Pressure: 29.56"   Gusts: 29mph
Location:  41.14°N, 100.76°W
Report Text: KLBF 221753Z AUTO 31017G25KT 10SM CLR 08/M03 A2956 RMK AO2 PK WND 31026/1715 SLP020 T00831028 10083 20006 58009
Loading
Personal Weather Stations






























Interactive Weather Map New forecast layout! Learn more

10-Day Weather Forecast

Advertisements
Track Severe Weather on mobile